Time;durP1;ratioP1;P1;durP2;ratioP2;P2;SDS_P1;SDS_P2;PMS_P1;PMS_P2;Temp;Humidity;BMP_temperature;BMP_pressure;BME280_temperature;BME280_humidity;BME280_pressure;Samples;Min_cycle;Max_cycle;Signal;HPM_P1;HPM_P2
2022/03/16 00:01:30;;;;;;;18.33;8.60;;;;;;;11.46;29.55;100940.94;5358603;32;35550;-64
2022/03/16 00:04:32;;;;;;;17.93;8.17;;;;;;;12.30;28.95;100935.37;5366987;32;34991;-64
2022/03/16 00:07:36;;;;;;;17.87;8.90;;;;;;;12.45;29.34;100912.81;5347107;32;35625;-64
2022/03/16 00:10:38;;;;;;;19.03;8.90;;;;;;;12.72;29.07;100889.78;5368252;32;35222;-69
2022/03/16 00:13:40;;;;;;;18.67;8.27;;;;;;;12.41;30.00;100866.41;5356535;32;33971;-64
2022/03/16 00:16:42;;;;;;;17.57;9.40;;;;;;;12.53;29.56;100870.34;5377364;32;34659;-70
2022/03/16 00:19:44;;;;;;;18.43;9.67;;;;;;;11.92;30.97;100876.19;5359064;32;35002;-71
2022/03/16 00:22:46;;;;;;;16.50;9.63;;;;;;;11.85;31.34;100865.03;5334261;32;33973;-71
2022/03/16 00:25:48;;;;;;;18.17;9.43;;;;;;;11.33;32.32;100872.09;5368263;32;34534;-71
2022/03/16 00:28:51;;;;;;;17.80;9.10;;;;;;;11.63;31.72;100862.25;5354447;32;34676;-64
2022/03/16 00:31:53;;;;;;;21.27;9.73;;;;;;;11.95;31.13;100860.25;5377125;32;34851;-69
2022/03/16 00:34:55;;;;;;;18.27;9.63;;;;;;;10.93;32.78;100861.19;5352918;32;34929;-65
2022/03/16 00:37:57;;;;;;;19.63;9.30;;;;;;;11.51;31.84;100853.94;5370392;32;34836;-65
2022/03/16 00:40:59;;;;;;;18.80;10.30;;;;;;;11.60;31.76;100856.25;5365628;32;34148;-64
2022/03/16 00:44:02;;;;;;;22.40;10.30;;;;;;;11.28;32.81;100845.09;5332564;32;34279;-63
2022/03/16 00:47:05;;;;;;;18.35;10.20;;;;;;;11.30;33.39;100848.50;5374994;32;34481;-64
2022/03/16 00:50:07;;;;;;;19.23;9.80;;;;;;;10.78;35.16;100847.63;5354448;32;34222;-70
2022/03/16 00:53:09;;;;;;;17.43;9.70;;;;;;;10.97;35.86;100847.03;5371882;32;35037;-63
2022/03/16 00:56:12;;;;;;;22.37;10.43;;;;;;;11.72;34.75;100841.75;5363566;32;33052;-70
2022/03/16 00:59:14;;;;;;;17.62;9.75;;;;;;;12.24;33.74;100839.88;5359377;32;34382;-65
2022/03/16 01:02:16;;;;;;;20.57;10.50;;;;;;;11.88;34.57;100832.44;5360312;32;34472;-71
2022/03/16 01:05:19;;;;;;;20.37;11.07;;;;;;;11.19;36.66;100832.22;5353001;32;35742;-64
2022/03/16 01:08:22;;;;;;;20.73;10.83;;;;;;;10.98;37.08;100830.34;5373953;32;33769;-71
2022/03/16 01:11:24;;;;;;;21.63;11.43;;;;;;;9.87;40.39;100838.16;5353132;32;35635;-70
2022/03/16 01:14:26;;;;;;;20.63;11.20;;;;;;;10.87;38.33;100829.84;5357632;32;35577;-64
2022/03/16 01:17:28;;;;;;;21.37;11.40;;;;;;;11.29;37.41;100832.78;5350426;32;44386;-63
2022/03/16 01:20:31;;;;;;;23.53;11.23;;;;;;;10.52;39.65;100826.59;5371819;32;35558;-64
2022/03/16 01:23:35;;;;;;;25.53;11.63;;;;;;;10.20;40.61;100832.81;5354476;32;35420;-63
2022/03/16 01:26:37;;;;;;;22.43;11.03;;;;;;;10.79;39.77;100833.56;5348180;32;34496;-64
2022/03/16 01:29:39;;;;;;;20.90;11.10;;;;;;;11.74;37.64;100838.19;5371753;32;34031;-65
2022/03/16 01:32:42;;;;;;;23.00;11.30;;;;;;;11.51;38.13;100848.66;5358888;32;34000;-63
2022/03/16 01:35:44;;;;;;;20.83;10.53;;;;;;;11.52;38.14;100845.12;5367969;32;34532;-64
2022/03/16 01:38:46;;;;;;;22.60;12.10;;;;;;;11.69;37.95;100860.31;5363274;32;34456;-71
2022/03/16 01:41:50;;;;;;;24.37;11.30;;;;;;;11.33;38.79;100866.84;5358217;32;34679;-71
2022/03/16 01:44:54;;;;;;;19.05;11.05;;;;;;;10.98;40.13;100877.69;5335684;32;34749;-71
2022/03/16 01:47:56;;;;;;;21.87;11.90;;;;;;;11.20;39.56;100877.81;5357910;32;34414;-70
2022/03/16 01:50:58;;;;;;;25.43;11.50;;;;;;;10.99;40.41;100874.13;5368524;32;44742;-64
2022/03/16 01:54:01;;;;;;;19.77;11.23;;;;;;;11.57;38.73;100878.25;5362595;32;34096;-64
2022/03/16 01:57:03;;;;;;;21.07;10.60;;;;;;;11.25;40.05;100882.00;5381546;32;35219;-71
2022/03/16 02:00:06;;;;;;;19.77;10.33;;;;;;;11.97;37.78;100878.63;5357457;32;35404;-64
2022/03/16 02:03:08;;;;;;;21.92;12.13;;;;;;;12.28;37.22;100870.44;5358656;32;34731;-64
2022/03/16 02:06:11;;;;;;;22.27;11.30;;;;;;;11.60;38.84;100864.16;5362502;32;34559;-65
2022/03/16 02:09:13;;;;;;;23.37;11.97;;;;;;;10.43;42.03;100871.53;5362864;32;34062;-70
2022/03/16 02:12:15;;;;;;;24.23;11.87;;;;;;;10.36;42.70;100877.87;5358384;32;34021;-70
2022/03/16 02:15:18;;;;;;;21.47;10.67;;;;;;;10.26;43.09;100870.31;5354662;32;34892;-70
2022/03/16 02:18:20;;;;;;;20.23;11.55;;;;;;;11.18;41.08;100855.97;5367742;32;34259;-63
2022/03/16 02:21:23;;;;;;;30.00;12.70;;;;;;;10.99;41.99;100845.19;5367277;32;34680;-63
2022/03/16 02:24:26;;;;;;;18.33;11.17;;;;;;;9.87;44.21;100855.69;5338699;32;34786;-70
2022/03/16 02:27:28;;;;;;;;;;;;;;;9.76;44.35;100850.72;5373055;32;44623;-70
2022/03/16 02:30:30;;;;;;;20.63;11.00;;;;;;;9.38;45.15;100841.28;5363468;32;34429;-63
2022/03/16 02:33:33;;;;;;;21.67;11.87;;;;;;;10.24;43.57;100837.97;5378488;32;35358;-63
2022/03/16 02:36:35;;;;;;;22.33;11.93;;;;;;;11.59;40.02;100825.56;5365041;32;36322;-70
2022/03/16 02:39:37;;;;;;;22.33;11.90;;;;;;;10.58;41.95;100827.25;5364202;32;34901;-64
2022/03/16 02:42:39;;;;;;;20.50;11.63;;;;;;;10.89;41.84;100796.47;5350392;32;34254;-71
2022/03/16 02:45:41;;;;;;;19.70;11.17;;;;;;;11.12;41.32;100804.41;5337216;32;35471;-64
2022/03/16 02:48:44;;;;;;;21.20;11.70;;;;;;;11.97;39.46;100796.97;5365688;32;33758;-71
2022/03/16 02:51:46;;;;;;;21.70;11.27;;;;;;;12.02;39.56;100795.03;5360785;32;33820;-63
2022/03/16 02:54:49;;;;;;;20.40;11.47;;;;;;;11.37;41.51;100793.88;5376354;32;34650;-70
2022/03/16 02:57:51;;;;;;;23.10;11.90;;;;;;;11.52;41.19;100793.31;5361501;32;34960;-63
2022/03/16 03:00:53;;;;;;;27.03;11.80;;;;;;;11.70;40.21;100791.78;5373804;32;34494;-64
2022/03/16 03:03:56;;;;;;;23.53;12.60;;;;;;;11.79;40.31;100780.09;5348139;32;35439;-64
2022/03/16 03:06:58;;;;;;;23.73;12.57;;;;;;;10.78;42.88;100774.03;5351466;32;44361;-63
2022/03/16 03:10:00;;;;;;;22.67;12.40;;;;;;;11.67;40.76;100765.59;5364140;32;35272;-71
2022/03/16 03:13:02;;;;;;;22.50;12.20;;;;;;;12.18;40.04;100762.75;5350015;32;34061;-70
2022/03/16 03:16:04;;;;;;;21.93;11.53;;;;;;;11.25;42.24;100771.50;5348562;32;35438;-69
2022/03/16 03:19:07;;;;;;;23.80;12.27;;;;;;;10.69;44.22;100765.56;5350111;32;35309;-63
2022/03/16 03:22:09;;;;;;;25.13;14.67;;;;;;;11.26;42.73;100749.53;5361163;32;34844;-64
2022/03/16 03:25:12;;;;;;;29.67;16.73;;;;;;;11.52;42.18;100743.31;5339654;32;33840;-70
2022/03/16 03:28:15;;;;;;;32.78;15.68;;;;;;;12.16;40.48;100721.56;5364681;32;34634;-64
2022/03/16 03:31:17;;;;;;;32.22;16.98;;;;;;;11.18;43.35;100727.06;5381254;32;34847;-71
2022/03/16 03:34:19;;;;;;;28.67;14.17;;;;;;;10.14;46.77;100722.69;5358677;32;34733;-64
2022/03/16 03:37:25;;;;;;;26.87;14.20;;;;;;;9.88;47.48;100715.63;5381294;32;34353;-71
2022/03/16 03:40:27;;;;;;;25.13;13.67;;;;;;;11.28;43.81;100692.47;5353900;32;36760;-65
2022/03/16 03:43:29;;;;;;;26.73;12.73;;;;;;;11.37;43.58;100686.84;5349015;32;35373;-64
2022/03/16 03:46:31;;;;;;;22.80;12.27;;;;;;;11.73;42.87;100686.38;5364870;32;35959;-64
2022/03/16 03:49:35;;;;;;;23.43;13.20;;;;;;;11.22;44.20;100683.94;5360476;32;34816;-64
2022/03/16 03:52:37;;;;;;;;;;;;;;;10.30;47.25;100666.12;5374528;32;35028;-65
2022/03/16 03:55:39;;;;;;;22.57;12.77;;;;;;;11.29;44.28;100667.00;5358670;32;35496;-64
2022/03/16 03:58:41;;;;;;;25.40;14.10;;;;;;;10.65;45.98;100664.09;5362694;32;34593;-63
2022/03/16 04:01:43;;;;;;;21.83;12.67;;;;;;;11.35;44.37;100648.38;5355389;32;35293;-68
2022/03/16 04:04:46;;;;;;;28.83;14.27;;;;;;;11.54;43.41;100644.09;5368192;32;34996;-64
2022/03/16 04:07:48;;;;;;;21.23;12.67;;;;;;;11.71;42.92;100635.53;5366216;32;35092;-70
2022/03/16 04:10:50;;;;;;;26.03;14.37;;;;;;;11.49;43.34;100639.94;5362124;32;34977;-64
2022/03/16 04:13:52;;;;;;;24.03;12.73;;;;;;;10.75;44.71;100645.28;5368756;32;34049;-71
2022/03/16 04:16:54;;;;;;;27.17;14.03;;;;;;;10.89;44.58;100638.69;5346420;32;36212;-70
2022/03/16 04:19:57;;;;;;;24.40;14.07;;;;;;;11.26;43.82;100646.91;5373459;32;35388;-63
2022/03/16 04:22:59;;;;;;;27.10;14.10;;;;;;;10.96;44.99;100640.19;5363387;32;44647;-72
2022/03/16 04:26:01;;;;;;;26.80;15.33;;;;;;;11.42;44.25;100636.69;5361170;32;35089;-70
2022/03/16 04:29:03;;;;;;;26.30;14.27;;;;;;;10.32;48.03;100634.56;5360775;32;34432;-71
2022/03/16 04:32:05;;;;;;;26.50;14.90;;;;;;;9.56;51.32;100615.12;5365758;32;34691;-71
2022/03/16 04:35:08;;;;;;;33.90;14.90;;;;;;;11.17;45.55;100612.22;5368458;32;34653;-71
2022/03/16 04:38:10;;;;;;;29.90;15.17;;;;;;;10.68;46.12;100633.28;5356581;32;34592;-69
2022/03/16 04:41:12;;;;;;;24.43;14.90;;;;;;;10.24;47.79;100635.69;5378523;32;33938;-63
2022/03/16 04:44:14;;;;;;;27.23;15.50;;;;;;;10.74;46.40;100647.97;5329752;32;34677;-70
2022/03/16 04:47:16;;;;;;;22.80;12.97;;;;;;;10.01;48.82;100640.81;5352478;32;35417;-64
2022/03/16 04:50:18;;;;;;;20.97;12.40;;;;;;;11.06;45.97;100637.13;5367391;32;34668;-64
2022/03/16 04:53:20;;;;;;;29.50;14.50;;;;;;;10.07;47.46;100653.75;5344838;32;34183;-63
2022/03/16 04:56:22;;;;;;;28.53;14.40;;;;;;;9.47;49.33;100654.78;5380980;32;34256;-63
2022/03/16 04:59:25;;;;;;;25.20;13.50;;;;;;;9.75;48.81;100671.37;5365511;32;34396;-70
2022/03/16 05:02:27;;;;;;;24.57;14.47;;;;;;;9.91;48.84;100660.37;5360713;32;46280;-70
2022/03/16 05:05:29;;;;;;;28.03;14.27;;;;;;;9.72;50.27;100666.22;5362911;32;34847;-64
2022/03/16 05:08:35;;;;;;;25.53;14.70;;;;;;;10.24;48.26;100656.72;5359629;32;34846;-70
2022/03/16 05:11:40;;;;;;;28.83;14.83;;;;;;;9.62;50.47;100656.06;5373309;32;35877;-71
2022/03/16 05:14:42;;;;;;;26.33;15.03;;;;;;;9.72;50.39;100666.22;5347946;32;34483;-69
2022/03/16 05:17:46;;;;;;;29.70;15.67;;;;;;;9.17;52.93;100675.75;5366187;32;34809;-64
2022/03/16 05:20:48;;;;;;;26.37;14.32;;;;;;;10.73;47.10;100662.88;5364299;32;34314;-70
2022/03/16 05:23:50;;;;;;;30.77;16.47;;;;;;;10.50;47.49;100662.84;5353346;32;34075;-71
2022/03/16 05:26:53;;;;;;;26.60;14.70;;;;;;;10.13;48.86;100677.19;5359447;32;35525;-70
2022/03/16 05:29:55;;;;;;;40.17;16.07;;;;;;;9.60;51.06;100689.38;5356117;32;34850;-71
2022/03/16 05:33:01;;;;;;;29.30;14.33;;;;;;;10.22;49.61;100668.13;5370550;32;37263;-71
2022/03/16 05:36:04;;;;;;;29.47;15.43;;;;;;;9.86;50.00;100663.19;5352512;32;35173;-64
2022/03/16 05:39:06;;;;;;;30.00;14.57;;;;;;;10.15;49.92;100667.47;5365355;32;35300;-70
2022/03/16 05:42:08;;;;;;;25.70;14.53;;;;;;;10.05;50.07;100668.69;5357440;32;34917;-64
2022/03/16 05:45:10;;;;;;;30.23;14.03;;;;;;;10.46;49.35;100679.62;5345999;32;35723;-64
2022/03/16 05:48:13;;;;;;;29.80;14.73;;;;;;;10.50;49.43;100710.16;5356705;32;34911;-70
2022/03/16 05:51:15;;;;;;;33.07;15.00;;;;;;;9.96;52.16;100722.34;5362960;32;34233;-65
2022/03/16 05:54:17;;;;;;;33.57;17.03;;;;;;;9.75;56.08;100716.00;5373022;32;33995;-65
2022/03/16 05:57:20;;;;;;;31.77;15.57;;;;;;;10.23;56.96;100710.12;5365768;32;34591;-65
2022/03/16 06:00:23;;;;;;;27.83;15.25;;;;;;;9.39;58.35;100710.06;5356677;32;34092;-70
2022/03/16 06:03:25;;;;;;;30.90;15.10;;;;;;;9.22;58.69;100710.56;5349125;32;35482;-64
2022/03/16 06:06:29;;;;;;;24.50;15.30;;;;;;;9.43;58.94;100722.19;5370745;32;44700;-70
2022/03/16 06:09:32;;;;;;;29.27;15.53;;;;;;;10.32;57.29;100716.88;5340444;32;35121;-72
2022/03/16 06:12:35;;;;;;;28.67;14.75;;;;;;;10.69;56.04;100713.00;5359487;32;35003;-63
2022/03/16 06:15:42;;;;;;;26.35;15.32;;;;;;;10.25;56.74;100717.97;5367683;32;34863;-64
2022/03/16 06:18:44;;;;;;;22.63;13.57;;;;;;;11.19;54.79;100726.13;5354008;32;33927;-71
2022/03/16 06:21:47;;;;;;;24.97;14.17;;;;;;;10.30;58.09;100713.41;5375246;32;34878;-71
2022/03/16 06:24:49;;;;;;;23.42;14.07;;;;;;;10.75;56.71;100721.53;5350439;32;35419;-70
2022/03/16 06:27:52;;;;;;;26.77;14.20;;;;;;;10.10;58.76;100729.78;5356268;32;34908;-71
2022/03/16 06:30:55;;;;;;;28.90;16.35;;;;;;;9.44;62.59;100725.69;5368453;32;34816;-70
2022/03/16 06:34:03;;;;;;;30.77;16.37;;;;;;;10.30;60.00;100734.44;5355550;32;44611;-65
2022/03/16 06:37:05;;;;;;;30.30;15.80;;;;;;;9.52;62.48;100743.81;5365426;32;35228;-71
2022/03/16 06:40:07;;;;;;;34.97;16.87;;;;;;;9.19;64.21;100742.09;5357525;32;35156;-71
2022/03/16 06:43:10;;;;;;;25.37;16.63;;;;;;;9.97;60.76;100731.94;5355525;32;35188;-62
2022/03/16 06:46:12;;;;;;;30.53;17.40;;;;;;;9.86;60.60;100736.69;5350830;32;34260;-63
2022/03/16 06:49:14;;;;;;;27.07;16.33;;;;;;;9.23;61.42;100738.50;5352155;32;34047;-71
2022/03/16 06:52:16;;;;;;;32.97;17.20;;;;;;;10.19;57.45;100737.41;5348326;32;34163;-68
2022/03/16 06:55:18;;;;;;;26.87;16.60;;;;;;;8.93;61.12;100734.09;5349758;32;33910;-67
2022/03/16 06:58:21;;;;;;;28.27;16.77;;;;;;;9.36;60.59;100735.53;5356427;32;34159;-74
2022/03/16 07:01:23;;;;;;;30.80;16.53;;;;;;;9.51;59.09;100737.72;5359542;32;34110;-70
2022/03/16 07:04:25;;;;;;;40.03;17.70;;;;;;;9.69;59.18;100737.19;5384410;32;34157;-68
2022/03/16 07:07:28;;;;;;;35.07;17.83;;;;;;;9.56;60.77;100741.06;5359565;32;44450;-66
2022/03/16 07:10:31;;;;;;;29.83;17.50;;;;;;;8.82;63.62;100746.63;5369694;32;35849;-70
2022/03/16 07:13:33;;;;;;;29.77;17.47;;;;;;;8.65;63.97;100757.56;5367831;32;35890;-70
2022/03/16 07:16:35;;;;;;;30.53;16.67;;;;;;;8.70;63.83;100753.06;5341480;32;35544;-66
2022/03/16 07:19:38;;;;;;;33.10;16.80;;;;;;;8.86;63.61;100761.38;5376769;32;34145;-66
2022/03/16 07:22:40;;;;;;;30.67;16.93;;;;;;;9.60;60.45;100762.84;5360495;32;34084;-65
2022/03/16 07:25:55;;;;;;;32.80;17.57;;;;;;;9.01;62.26;100757.47;5369245;32;34029;-67
2022/03/16 07:28:58;;;;;;;26.33;15.70;;;;;;;9.42;61.44;100751.12;5363513;32;44352;-79
2022/03/16 07:32:00;;;;;;;30.30;16.57;;;;;;;9.63;59.70;100762.75;5364631;32;33563;-65
2022/03/16 07:35:02;;;;;;;31.50;17.27;;;;;;;8.94;60.33;100770.75;5378386;32;34124;-67
2022/03/16 07:38:05;;;;;;;28.07;16.20;;;;;;;8.94;61.37;100767.28;5366844;32;35300;-65
2022/03/16 07:41:07;;;;;;;26.55;16.12;;;;;;;8.06;64.92;100781.62;5375937;32;35159;-68
2022/03/16 07:44:09;;;;;;;27.77;16.37;;;;;;;8.99;61.75;100778.50;5343075;32;35958;-65
2022/03/16 07:47:11;;;;;;;27.73;16.20;;;;;;;7.81;65.53;100786.53;5372639;32;33827;-74
2022/03/16 07:50:14;;;;;;;26.70;15.47;;;;;;;7.95;63.84;100780.13;5373195;32;34212;-66
2022/03/16 07:53:17;;;;;;;29.23;16.90;;;;;;;8.61;62.54;100782.97;5358149;32;36499;-70
2022/03/16 07:56:19;;;;;;;30.60;17.73;;;;;;;7.84;65.42;100794.31;5350673;32;34010;-69
2022/03/16 07:59:21;;;;;;;31.23;16.80;;;;;;;8.13;64.06;100805.91;5353420;32;33909;-71
2022/03/16 08:02:27;;;;;;;27.97;16.60;;;;;;;7.36;67.02;100803.16;5375398;32;35545;-72
2022/03/16 08:05:29;;;;;;;32.17;16.23;;;;;;;7.69;66.04;100805.09;5355235;32;46592;-66
2022/03/16 08:08:32;;;;;;;29.33;16.37;;;;;;;7.92;65.10;100802.00;5372518;32;34511;-80
2022/03/16 08:11:34;;;;;;;29.77;18.50;;;;;;;7.74;66.32;100797.16;5365269;32;34564;-65
2022/03/16 08:14:36;;;;;;;25.40;15.17;;;;;;;8.74;62.84;100786.13;5352906;32;33192;-69
2022/03/16 08:17:38;;;;;;;31.23;18.57;;;;;;;9.17;59.34;100785.87;5382346;32;35122;-69
2022/03/16 08:20:41;;;;;;;27.97;15.93;;;;;;;8.57;62.90;100799.66;5347448;32;34303;-70
2022/03/16 08:23:43;;;;;;;29.20;16.67;;;;;;;7.41;66.85;100804.81;5381561;32;34610;-74
2022/03/16 08:26:45;;;;;;;29.80;17.73;;;;;;;7.70;67.10;100806.81;5365344;32;33821;-73
2022/03/16 08:29:47;;;;;;;30.13;16.70;;;;;;;7.93;66.70;100806.34;5369717;32;33997;-77
2022/03/16 08:32:49;;;;;;;32.37;16.50;;;;;;;7.77;66.86;100813.66;5362144;32;35822;-68
2022/03/16 08:35:52;;;;;;;29.50;15.43;;;;;;;8.27;64.88;100810.84;5344537;32;33065;-79
2022/03/16 08:38:54;;;;;;;29.37;16.83;;;;;;;9.15;62.18;100813.06;5352702;32;37158;-65
2022/03/16 08:41:56;;;;;;;26.77;16.27;;;;;;;8.08;66.38;100828.69;5341711;32;34006;-65
2022/03/16 08:44:58;;;;;;;29.57;16.73;;;;;;;8.26;65.87;100830.06;5354248;32;45763;-75
2022/03/16 08:48:01;;;;;;;28.77;16.13;;;;;;;8.62;65.54;100831.84;5352925;32;36049;-73
2022/03/16 08:51:03;;;;;;;27.97;16.10;;;;;;;8.27;67.34;100837.88;5364667;32;35415;-70
2022/03/16 08:54:06;;;;;;;29.03;16.67;;;;;;;8.37;65.78;100839.44;5363211;32;35438;-69
2022/03/16 08:57:09;;;;;;;28.03;16.60;;;;;;;8.70;64.62;100836.06;5359143;32;35644;-62
2022/03/16 09:00:15;;;;;;;30.10;16.85;;;;;;;7.98;67.53;100851.59;5371099;32;34214;-62
2022/03/16 09:03:17;;;;;;;32.10;16.20;;;;;;;7.76;67.06;100858.16;5368079;32;34758;-75
2022/03/16 09:06:20;;;;;;;30.47;15.80;;;;;;;8.20;63.60;100864.25;5380260;32;33974;-76
2022/03/16 09:09:23;;;;;;;31.20;16.65;;;;;;;8.65;61.76;100865.84;5345530;32;34099;-75
2022/03/16 09:12:25;;;;;;;29.70;16.23;;;;;;;8.31;61.87;100868.34;5368631;32;35403;-78
2022/03/16 09:15:27;;;;;;;28.53;16.83;;;;;;;7.19;66.56;100868.81;5374738;32;42833;-70
2022/03/16 09:18:30;;;;;;;27.93;15.43;;;;;;;7.26;66.14;100876.53;5354228;32;34542;-77
2022/03/16 09:21:32;;;;;;;29.00;17.60;;;;;;;7.14;68.37;100876.75;5377633;32;34597;-64
2022/03/16 09:24:38;;;;;;;26.83;16.13;;;;;;;7.00;68.21;100886.56;5357813;32;34247;-66
2022/03/16 09:27:40;;;;;;;27.37;16.00;;;;;;;7.67;65.56;100874.06;5375044;32;34474;-67
2022/03/16 09:30:42;;;;;;;27.93;16.70;;;;;;;7.61;65.38;100888.13;5362520;32;34173;-64
2022/03/16 09:33:44;;;;;;;30.23;17.50;;;;;;;7.24;68.00;100895.75;5354385;32;32772;-64
2022/03/16 09:36:47;;;;;;;31.27;18.30;;;;;;;6.44;73.03;100898.72;5377187;32;34178;-66
2022/03/16 09:39:50;;;;;;;31.60;17.00;;;;;;;7.27;70.37;100901.78;5366241;32;34160;-68
2022/03/16 09:42:54;;;;;;;28.87;17.40;;;;;;;6.51;72.50;100905.63;5351671;32;35051;-75
2022/03/16 09:46:09;;;;;;;30.57;18.17;;;;;;;7.64;70.38;100902.88;5354549;32;35831;-71
2022/03/16 09:49:14;;;;;;;36.07;17.97;;;;;;;7.44;70.11;100906.72;5375702;32;34510;-70
2022/03/16 09:52:16;;;;;;;30.60;16.57;;;;;;;7.42;70.26;100911.13;5374342;32;34503;-74
2022/03/16 09:55:20;;;;;;;29.83;18.20;;;;;;;7.81;69.10;100919.13;5370410;32;33667;-67
2022/03/16 09:58:22;;;;;;;;;;;;;;;6.81;73.24;100924.31;5380463;32;34812;-68
2022/03/16 10:01:24;;;;;;;30.20;17.83;;;;;;;7.09;73.08;100922.16;5365606;32;35640;-69
2022/03/16 10:04:29;;;;;;;27.63;17.43;;;;;;;8.59;65.96;100928.00;5365002;32;34573;-72
2022/03/16 10:07:34;;;;;;;26.57;16.53;;;;;;;8.20;66.22;100929.69;5354276;32;44710;-79
2022/03/16 10:14:06;;;;;;;28.80;17.77;;;;;;;7.37;68.72;100933.88;5372431;32;46187;-72
2022/03/16 10:20:35;;;;;;;29.83;17.73;;;;;;;7.31;72.40;100933.97;5376980;32;43262;-84
2022/03/16 10:23:37;;;;;;;31.17;18.20;;;;;;;7.83;68.74;100927.81;5369004;32;34316;-72
2022/03/16 10:26:51;;;;;;;31.07;19.10;;;;;;;7.03;73.08;100936.19;5366089;32;35348;-67
2022/03/16 10:29:54;;;;;;;36.80;17.60;;;;;;;7.60;70.56;100936.97;5378555;32;35514;-72
2022/03/16 10:32:56;;;;;;;29.98;18.12;;;;;;;7.73;70.56;100934.09;5370174;32;33889;-70
2022/03/16 10:36:00;;;;;;;31.57;18.43;;;;;;;7.11;72.62;100943.91;5367034;32;44310;-70
2022/03/16 10:39:03;;;;;;;;;;;;;;;7.15;72.75;100946.47;5364945;32;33986;-79
2022/03/16 10:49:00;;;;;;;34.97;19.50;;;;;;;7.66;71.02;100945.56;5363598;32;35366;-71
2022/03/16 10:52:11;;;;;;;35.10;18.93;;;;;;;7.75;71.21;100951.50;5376370;32;42737;-73
2022/03/16 10:55:13;;;;;;;32.90;17.83;;;;;;;7.24;71.38;100955.87;5362326;32;175018;-80
2022/03/16 10:58:17;;;;;;;33.43;19.20;;;;;;;6.97;74.85;100951.97;5360329;32;35380;-70
2022/03/16 11:01:22;;;;;;;36.63;19.83;;;;;;;7.21;72.99;100958.53;5370466;32;35551;-79
2022/03/16 11:04:25;;;;;;;35.13;19.10;;;;;;;7.60;70.31;100960.50;5347118;32;34237;-72
2022/03/16 11:07:30;;;;;;;34.20;17.65;;;;;;;7.57;71.11;100973.63;5374999;32;44132;-73
2022/03/16 11:10:43;;;;;;;30.20;18.00;;;;;;;7.01;71.87;100974.53;5367243;32;33919;-74
2022/03/16 11:13:48;;;;;;;30.73;18.13;;;;;;;7.76;69.33;100968.06;5377200;32;35353;-73
2022/03/16 11:16:51;;;;;;;31.27;18.43;;;;;;;7.88;68.77;100979.16;5366259;32;35355;-69
2022/03/16 11:19:55;;;;;;;28.42;16.42;;;;;;;7.17;70.42;100983.03;5360748;32;35819;-72
2022/03/16 11:26:46;;;;;;;37.57;18.17;;;;;;;6.50;72.19;100987.44;5346310;32;33572;-67
2022/03/16 11:30:10;;;;;;;36.03;17.80;;;;;;;7.75;68.13;100980.28;5375101;32;35182;-70
2022/03/16 11:33:15;;;;;;;38.30;18.15;;;;;;;8.47;64.94;100989.37;5372499;32;35472;-76
2022/03/16 11:36:28;;;;;;;31.47;17.37;;;;;;;8.32;64.08;100976.59;5362057;32;34066;-72
2022/03/16 11:39:43;;;;;;;30.58;16.73;;;;;;;7.85;65.51;100984.44;5374876;32;44507;-71
2022/03/16 11:43:11;;;;;;;28.73;16.00;;;;;;;7.68;65.90;100985.66;5357376;32;34845;-71
2022/03/16 11:46:28;;;;;;;32.73;18.60;;;;;;;7.86;65.96;100982.72;5360425;32;34318;-74
2022/03/16 11:49:30;;;;;;;31.20;18.30;;;;;;;7.77;67.47;100982.87;5363993;32;44522;-75
2022/03/16 11:53:00;;;;;;;29.33;17.33;;;;;;;8.37;64.97;100980.88;5368862;32;34122;-89
2022/03/16 11:56:23;;;;;;;40.23;18.63;;;;;;;7.89;66.85;100982.66;5362460;32;44353;-84
2022/03/16 11:59:27;;;;;;;34.50;17.67;;;;;;;8.29;65.91;100994.97;5369616;32;34416;-79
2022/03/16 12:02:30;;;;;;;25.43;15.07;;;;;;;8.15;64.96;100985.63;5364937;32;44616;-66
2022/03/16 12:05:55;;;;;;;27.67;15.20;;;;;;;7.59;66.95;100990.16;5376716;32;34262;-67
2022/03/16 12:08:59;;;;;;;32.45;16.12;;;;;;;8.14;64.83;100988.28;5353312;32;43823;-67
2022/03/16 12:12:54;;;;;;;30.57;16.40;;;;;;;7.86;66.63;100987.97;5372501;32;34080;-66
2022/03/16 12:16:05;;;;;;;25.17;14.37;;;;;;;8.13;65.16;100995.28;5373586;32;34100;-68
2022/03/16 12:19:30;;;;;;;29.97;16.80;;;;;;;7.43;66.87;101008.75;5366128;32;35687;-66
2022/03/16 12:22:36;;;;;;;;;;;;;;;7.74;67.00;101006.50;5377124;32;44456;-68
2022/03/16 12:25:40;;;;;;;32.57;16.57;;;;;;;7.73;66.56;101008.25;5369019;32;34770;-75
2022/03/16 12:28:59;;;;;;;32.53;17.35;;;;;;;8.26;65.04;101011.62;5369351;32;33993;-71
2022/03/16 12:32:01;;;;;;;28.43;16.83;;;;;;;7.96;65.68;101009.56;5354911;32;44231;-68
2022/03/16 12:35:04;;;;;;;32.73;17.60;;;;;;;8.06;66.25;101005.91;5366342;32;33906;-66
2022/03/16 12:38:10;;;;;;;29.67;16.10;;;;;;;8.67;63.18;101015.16;5373888;32;34152;-70
2022/03/16 12:44:45;;;;;;;24.40;15.10;;;;;;;8.30;63.14;101022.88;5349470;32;45955;-65
2022/03/16 12:48:04;;;;;;;22.63;14.43;;;;;;;8.24;62.43;101025.62;5377334;32;34146;-67
2022/03/16 12:51:06;;;;;;;34.20;15.20;;;;;;;8.50;60.35;101022.50;5365800;32;44711;-72
2022/03/16 12:54:09;;;;;;;34.03;14.83;;;;;;;8.78;60.22;101022.81;5380769;32;33952;-74
2022/03/16 12:57:15;;;;;;;22.50;13.88;;;;;;;8.84;59.25;101018.31;5368485;32;33990;-71
2022/03/16 13:00:18;;;;;;;25.03;14.47;;;;;;;8.64;59.28;101021.34;5357061;32;35088;-70
2022/03/16 13:03:22;;;;;;;;;;;;;;;8.47;60.00;101026.06;5373336;32;35534;-75
2022/03/16 13:06:24;;;;;;;24.20;13.60;;;;;;;8.37;60.45;101028.03;5358603;32;34619;-72
2022/03/16 13:09:34;;;;;;;23.87;12.57;;;;;;;9.12;58.46;101029.03;5368188;32;34340;-77
2022/03/16 13:12:41;;;;;;;22.00;11.73;;;;;;;8.62;59.10;101035.38;5366240;32;44622;-72
2022/03/16 13:15:44;;;;;;;21.53;12.30;;;;;;;8.90;58.82;101033.91;5374534;32;34728;-77
2022/03/16 13:18:48;;;;;;;19.60;11.85;;;;;;;8.33;59.53;101054.25;5361486;32;34441;-77
2022/03/16 13:22:05;;;;;;;21.77;11.63;;;;;;;9.93;55.43;101039.31;5353700;32;35480;-70
2022/03/16 13:25:09;;;;;;;22.93;12.70;;;;;;;10.17;53.63;101037.78;5377826;32;36636;-70
2022/03/16 13:28:12;;;;;;;21.20;11.70;;;;;;;9.64;55.98;101047.91;5366095;32;35434;-69
2022/03/16 13:31:14;;;;;;;24.10;11.50;;;;;;;9.07;57.62;101048.38;5368625;32;33026;-62
2022/03/16 13:34:18;;;;;;;20.87;11.63;;;;;;;8.53;59.51;101054.75;5365365;32;33408;-63
2022/03/16 13:37:23;;;;;;;21.77;12.43;;;;;;;9.12;57.91;101049.12;5355776;32;33982;-69
2022/03/16 13:40:27;;;;;;;26.57;12.90;;;;;;;9.41;57.14;101061.59;5362601;32;36432;-66
2022/03/16 13:43:31;;;;;;;;;;;;;;;9.33;55.55;101048.62;5357139;32;48127;-66
2022/03/16 13:46:40;;;;;;;23.35;10.80;;;;;;;9.31;55.90;101054.84;5373032;32;35391;-66
2022/03/16 13:49:44;;;;;;;20.47;10.10;;;;;;;9.04;56.99;101056.31;5366772;32;33808;-68
2022/03/16 13:52:47;;;;;;;19.53;10.23;;;;;;;9.80;54.75;101065.03;5360375;32;36858;-69
2022/03/16 13:55:51;;;;;;;14.80;8.07;;;;;;;9.25;55.26;101062.84;5366886;32;34324;-70
2022/03/16 13:58:53;;;;;;;;;;;;;;;9.06;55.91;101065.88;5367152;32;33928;-70
2022/03/16 14:02:08;;;;;;;15.40;8.33;;;;;;;9.27;55.00;101063.66;5374662;32;34337;-63
2022/03/16 14:05:16;;;;;;;14.40;8.80;;;;;;;10.36;51.89;101048.69;5351645;32;34231;-84
2022/03/16 14:08:18;;;;;;;17.70;8.13;;;;;;;9.34;54.17;101055.62;5367019;32;34076;-71
2022/03/16 14:11:31;;;;;;;14.47;7.97;;;;;;;9.68;52.38;101058.31;5356883;32;34228;-73
2022/03/16 14:14:34;;;;;;;15.68;7.80;;;;;;;10.14;51.46;101061.50;5365308;32;44549;-73
2022/03/16 14:17:53;;;;;;;13.47;7.87;;;;;;;10.57;49.97;101054.22;5380957;32;34342;-69
2022/03/16 14:20:58;;;;;;;11.97;6.60;;;;;;;10.13;49.97;101063.28;5373590;32;32821;-68
2022/03/16 14:24:00;;;;;;;11.63;6.53;;;;;;;9.57;51.38;101067.34;5380007;32;44596;-70
2022/03/16 14:27:19;;;;;;;11.97;7.00;;;;;;;9.23;52.26;101068.13;5359262;32;35315;-71